Аэропорт: Шереметьево. Москва

ICAO: UUEE

METAR:
2020-08-12 07:00:00
UUEE 120700Z 31003MPS 260V010 9999 -SHRA BKN013CB 14/10 Q1012 R24L/CLRD62 R24R/CLRD62 NOSIG
METAR:
2020-08-12 04:53:00
TAF UUEE 120453Z 1206/1306 32005G10MPS 9000 FEW009 BKN012 TX16/1212Z TN11/1301Z TEMPO 1206/1209 -SHRA SCT007 BKN016CB TEMPO 1209/1221 34008G15MPS 3100 -SHRA BKN016CB PROB40 TEMPO 1210/1218 -TSRA BKN016CB